createdAt,value
2018-12-21T00:02:03.131Z,100113.53
2018-12-21T00:04:45.059Z,100106.81
2018-12-21T00:07:27.693Z,100111.20
2018-12-21T00:10:09.894Z,100111.88
2018-12-21T00:12:53.194Z,100116.90
2018-12-21T00:15:35.510Z,100116.74
2018-12-21T00:18:18.390Z,100111.80
2018-12-21T00:21:01.130Z,100112.23
2018-12-21T00:23:43.315Z,100116.86
2018-12-21T00:26:25.818Z,100115.63
2018-12-21T00:29:08.431Z,100112.33
2018-12-21T00:31:55.919Z,100107.92
2018-12-21T00:34:43.102Z,100107.33
2018-12-21T00:37:30.429Z,100107.19
2018-12-21T00:40:18.332Z,100110.70
2018-12-21T00:43:05.475Z,100106.62
2018-12-21T00:45:50.859Z,100101.97
2018-12-21T00:48:33.268Z,100104.27
2018-12-21T00:51:15.521Z,100100.33
2018-12-21T00:53:57.419Z,100095.80
2018-12-21T00:56:39.349Z,100095.88
2018-12-21T00:59:21.474Z,100097.95
2018-12-21T01:02:05.339Z,100094.30
2018-12-21T01:04:47.783Z,100091.02
2018-12-21T01:07:29.490Z,100092.38
2018-12-21T01:10:12.863Z,100091.87
2018-12-21T01:12:56.408Z,100097.40
2018-12-21T01:15:38.638Z,100098.13
2018-12-21T01:18:21.019Z,100090.82
2018-12-21T01:21:03.639Z,100093.72
2018-12-21T01:23:46.185Z,100094.87
2018-12-21T01:26:28.107Z,100092.39
2018-12-21T01:29:10.420Z,100091.98
2018-12-21T01:31:53.375Z,100094.80
2018-12-21T01:34:35.681Z,100093.95
2018-12-21T01:37:17.504Z,100100.14
2018-12-21T01:39:59.914Z,100093.02
2018-12-21T01:42:41.777Z,100097.27
2018-12-21T01:45:24.115Z,100088.72
2018-12-21T01:48:06.860Z,100080.44
2018-12-21T01:50:49.577Z,100080.55
2018-12-21T01:53:31.539Z,100074.13
2018-12-21T01:56:13.990Z,100071.16
2018-12-21T01:58:56.268Z,100071.94
2018-12-21T02:01:38.167Z,100075.33
2018-12-21T02:04:20.004Z,100069.85
2018-12-21T02:07:02.304Z,100068.17
2018-12-21T02:09:44.246Z,100066.60
2018-12-21T02:12:26.447Z,100063.43
2018-12-21T02:15:09.366Z,100071.16
2018-12-21T02:17:51.738Z,100060.02
2018-12-21T02:20:34.439Z,100064.52
2018-12-21T02:23:17.173Z,100070.38
2018-12-21T02:25:59.172Z,100062.83
2018-12-21T02:28:42.530Z,100058.83
2018-12-21T02:31:24.925Z,100048.22
2018-12-21T02:34:06.992Z,100047.97
2018-12-21T02:36:49.305Z,100054.06
2018-12-21T02:39:31.314Z,100050.87
2018-12-21T02:42:13.453Z,100049.17
2018-12-21T02:44:55.200Z,100047.06
2018-12-21T02:47:38.166Z,100049.33
2018-12-21T02:50:20.283Z,100047.30
2018-12-21T02:53:02.397Z,100051.52
2018-12-21T02:55:44.904Z,100044.11
2018-12-21T02:58:27.148Z,100052.31
2018-12-21T03:01:09.172Z,100047.94
2018-12-21T03:03:51.310Z,100041.86
2018-12-21T03:06:33.942Z,100039.34
2018-12-21T03:09:15.760Z,100030.53
2018-12-21T03:11:58.674Z,100033.38
2018-12-21T03:14:41.164Z,100028.75
2018-12-21T03:17:23.269Z,100030.01
2018-12-21T03:20:06.680Z,100026.72
2018-12-21T03:22:48.990Z,100025.07
2018-12-21T03:25:31.296Z,100021.75
2018-12-21T03:28:13.527Z,100025.23
2018-12-21T03:30:55.385Z,100014.94
2018-12-21T03:33:37.339Z,100009.48
2018-12-21T03:36:19.645Z,100010.26
2018-12-21T03:39:01.751Z,100010.05
2018-12-21T03:41:43.920Z,100004.54
2018-12-21T03:44:26.599Z,100004.52
2018-12-21T03:47:09.091Z,100001.59
2018-12-21T03:49:51.098Z,99999.30
2018-12-21T03:52:33.455Z,99999.54
2018-12-21T03:55:15.803Z,99998.27
2018-12-21T03:57:57.558Z,99993.59
2018-12-21T04:00:39.698Z,99987.47
2018-12-21T04:03:22.137Z,99992.48
2018-12-21T04:06:03.855Z,99991.06
2018-12-21T04:08:45.567Z,99994.41
2018-12-21T04:11:27.370Z,99989.42
2018-12-21T04:14:09.111Z,99984.67
2018-12-21T04:16:51.261Z,99981.45
2018-12-21T04:19:33.442Z,99980.00
2018-12-21T04:22:15.666Z,99976.87
2018-12-21T04:24:58.031Z,99972.11
2018-12-21T04:27:40.176Z,99967.02
2018-12-21T04:30:22.303Z,99962.94
2018-12-21T04:33:04.129Z,99962.93
2018-12-21T04:35:47.005Z,99964.14
2018-12-21T04:38:28.896Z,99959.94
2018-12-21T04:41:10.394Z,99954.85
2018-12-21T04:43:53.380Z,99956.59
2018-12-21T04:46:35.962Z,99956.27
2018-12-21T04:49:18.231Z,99953.84
2018-12-21T04:52:00.590Z,99948.04
2018-12-21T04:54:42.894Z,99942.05
2018-12-21T04:57:24.892Z,99943.79
2018-12-21T05:00:07.692Z,99940.92
2018-12-21T05:02:50.142Z,99935.30
2018-12-21T05:05:33.185Z,99934.19
2018-12-21T05:08:16.105Z,99938.20
2018-12-21T05:10:58.381Z,99939.86
2018-12-21T05:13:40.433Z,99938.48
2018-12-21T05:16:22.500Z,99933.56
2018-12-21T05:19:04.711Z,99936.20
2018-12-21T05:21:47.305Z,99936.01
2018-12-21T05:24:29.475Z,99937.28
2018-12-21T05:27:11.631Z,99935.83
2018-12-21T05:29:53.621Z,99939.53
2018-12-21T05:32:35.376Z,99936.19
2018-12-21T05:35:17.659Z,99936.53
2018-12-21T05:37:59.764Z,99928.97
2018-12-21T05:40:41.839Z,99933.27
2018-12-21T05:43:24.013Z,99928.53
2018-12-21T05:46:06.164Z,99926.53
2018-12-21T05:48:48.274Z,99923.55
2018-12-21T05:51:30.071Z,99919.06
2018-12-21T05:54:12.689Z,99922.48
2018-12-21T05:56:55.337Z,99919.02
2018-12-21T05:59:37.203Z,99912.16
2018-12-21T06:02:19.334Z,99907.61
2018-12-21T06:05:01.125Z,99903.49
2018-12-21T06:07:43.332Z,99900.61
2018-12-21T06:10:25.278Z,99890.19
2018-12-21T06:13:07.622Z,99887.00
2018-12-21T06:15:49.854Z,99891.99
2018-12-21T06:18:31.767Z,99889.14
2018-12-21T06:21:13.753Z,99888.77
2018-12-21T06:23:55.690Z,99881.94
2018-12-21T06:26:37.944Z,99879.47
2018-12-21T06:29:20.426Z,99867.66
2018-12-21T06:32:02.625Z,99865.59
2018-12-21T06:34:44.451Z,99859.81
2018-12-21T06:37:26.368Z,99852.80
2018-12-21T06:40:08.979Z,99850.09
2018-12-21T06:42:51.136Z,99843.38
2018-12-21T06:45:33.845Z,99844.48
2018-12-21T06:48:16.089Z,99836.88
2018-12-21T06:50:58.153Z,99842.02
2018-12-21T06:53:40.792Z,99836.25
2018-12-21T06:56:22.997Z,99835.98
2018-12-21T06:59:06.271Z,99832.95
2018-12-21T07:01:48.806Z,99832.48
2018-12-21T07:04:31.258Z,99828.17
2018-12-21T07:07:13.290Z,99823.43
2018-12-21T07:09:55.435Z,99825.63
2018-12-21T07:12:37.942Z,99823.98
2018-12-21T07:15:20.244Z,99826.92
2018-12-21T07:18:02.529Z,99821.86
2018-12-21T07:20:52.032Z,99813.15
2018-12-21T07:23:34.507Z,99820.02
2018-12-21T07:26:16.767Z,99821.11
2018-12-21T07:28:59.343Z,99816.60
2018-12-21T07:31:42.301Z,99817.66
2018-12-21T07:34:25.993Z,99814.59
2018-12-21T07:37:09.201Z,99803.56
2018-12-21T07:39:51.842Z,99807.69
2018-12-21T07:42:34.219Z,99800.34
2018-12-21T07:45:16.464Z,99797.23
2018-12-21T07:47:58.414Z,99794.92
2018-12-21T07:50:40.900Z,99805.00
2018-12-21T07:53:23.000Z,99799.55
2018-12-21T07:56:05.616Z,99793.99
2018-12-21T07:58:47.410Z,99794.95
2018-12-21T08:01:29.563Z,99795.62
2018-12-21T08:04:11.612Z,99786.80
2018-12-21T08:06:53.502Z,99782.09
2018-12-21T08:09:36.476Z,99785.19
2018-12-21T08:12:18.895Z,99782.00
2018-12-21T08:15:01.395Z,99779.95
2018-12-21T08:17:43.395Z,99773.61
2018-12-21T08:20:25.558Z,99774.77
2018-12-21T08:23:07.808Z,99769.61
2018-12-21T08:25:50.378Z,99758.63
2018-12-21T08:28:32.551Z,99754.54
2018-12-21T08:31:14.920Z,99759.82
2018-12-21T08:33:57.045Z,99756.88
2018-12-21T08:36:39.455Z,99749.60
2018-12-21T08:39:22.009Z,99743.08
2018-12-21T08:42:04.132Z,99748.19
2018-12-21T08:44:45.932Z,99739.75
2018-12-21T08:47:27.914Z,99740.56
2018-12-21T08:50:11.738Z,99730.86
2018-12-21T08:52:53.557Z,99729.68
2018-12-21T08:55:35.980Z,99715.45
2018-12-21T08:58:20.348Z,99708.73
2018-12-21T09:01:02.304Z,99702.18
2018-12-21T09:03:44.127Z,99696.66
2018-12-21T09:06:27.145Z,99679.98
2018-12-21T09:09:10.145Z,99672.56
2018-12-21T09:11:52.696Z,99674.42
2018-12-21T09:14:34.867Z,99671.91
2018-12-21T09:17:16.684Z,99662.06
2018-12-21T09:19:58.931Z,99654.44
2018-12-21T09:22:40.763Z,99655.58
2018-12-21T09:25:22.682Z,99647.95
2018-12-21T09:28:05.993Z,99642.20
2018-12-21T09:30:47.864Z,99635.56
2018-12-21T09:33:30.088Z,99633.24
2018-12-21T09:36:12.497Z,99625.13
2018-12-21T09:38:54.491Z,99624.03
2018-12-21T09:41:43.259Z,99615.97
2018-12-21T09:44:25.525Z,99606.77
2018-12-21T09:47:08.986Z,99596.22
2018-12-21T09:49:50.987Z,99593.66
2018-12-21T09:52:32.885Z,99586.60
2018-12-21T09:55:14.897Z,99583.75
2018-12-21T09:57:57.304Z,99581.52
2018-12-21T10:00:39.457Z,99569.82
2018-12-21T10:03:21.363Z,99574.66
2018-12-21T10:06:03.917Z,99565.61
2018-12-21T10:08:46.019Z,99577.47
2018-12-21T10:11:28.656Z,99567.92
2018-12-21T10:14:10.798Z,99551.34
2018-12-21T10:16:52.638Z,99544.14
2018-12-21T10:19:34.382Z,99526.45
2018-12-21T10:22:16.643Z,99526.81
2018-12-21T10:24:58.951Z,99528.80
2018-12-21T10:27:41.692Z,99521.82
2018-12-21T10:30:24.243Z,99525.72
2018-12-21T10:33:06.373Z,99518.80
2018-12-21T10:35:48.490Z,99520.72
2018-12-21T10:38:30.648Z,99511.20
2018-12-21T10:41:13.112Z,99504.38
2018-12-21T10:43:55.046Z,99500.80
2018-12-21T10:46:37.419Z,99490.01
2018-12-21T10:49:19.664Z,99478.22
2018-12-21T10:52:01.799Z,99474.77
2018-12-21T10:54:43.725Z,99451.55
2018-12-21T10:57:26.435Z,99444.09
2018-12-21T11:00:13.302Z,99444.96
2018-12-21T11:02:55.199Z,99435.64
2018-12-21T11:05:37.439Z,99435.58
2018-12-21T11:08:19.631Z,99428.34
2018-12-21T11:11:02.038Z,99411.64
2018-12-21T11:13:44.313Z,99399.64
2018-12-21T11:16:32.429Z,99392.82
2018-12-21T11:19:14.718Z,99383.59
2018-12-21T11:22:02.786Z,99377.21
2018-12-21T11:24:45.143Z,99374.13
2018-12-21T11:27:27.736Z,99367.42
2018-12-21T11:30:10.584Z,99364.50
2018-12-21T11:32:53.076Z,99345.69
2018-12-21T11:35:35.137Z,99329.78
2018-12-21T11:38:16.959Z,99336.28
2018-12-21T11:40:58.721Z,99331.63
2018-12-21T11:43:42.172Z,99326.73
2018-12-21T11:46:24.070Z,99328.16
2018-12-21T11:49:08.753Z,99322.31
2018-12-21T11:51:51.399Z,99314.44
2018-12-21T11:54:33.240Z,99312.21
2018-12-21T11:57:15.454Z,99299.27
2018-12-21T11:59:57.983Z,99288.25
2018-12-21T12:02:40.878Z,99277.47
2018-12-21T12:05:23.052Z,99271.52
2018-12-21T12:08:05.486Z,99261.41
2018-12-21T12:10:48.213Z,99257.53
2018-12-21T12:13:30.380Z,99244.45
2018-12-21T12:16:12.742Z,99237.81
2018-12-21T12:18:55.412Z,99227.61
2018-12-21T12:21:38.101Z,99220.52
2018-12-21T12:24:19.837Z,99207.80
2018-12-21T12:27:02.352Z,99200.05
2018-12-21T12:29:44.216Z,99183.81
2018-12-21T12:32:26.165Z,99200.34
2018-12-21T12:35:09.693Z,99189.75
2018-12-21T12:37:51.448Z,99176.20
2018-12-21T12:40:33.998Z,99169.97
2018-12-21T12:43:23.682Z,99180.68
2018-12-21T12:46:06.088Z,99173.73
2018-12-21T12:48:48.327Z,99159.91
2018-12-21T12:51:30.507Z,99143.67
2018-12-21T12:54:14.012Z,99145.76
2018-12-21T12:56:56.856Z,99133.66
2018-12-21T12:59:39.644Z,99132.75
2018-12-21T13:02:21.384Z,99128.28
2018-12-21T13:05:03.870Z,99126.00
2018-12-21T13:07:45.625Z,99113.06
2018-12-21T13:10:27.589Z,99108.41
2018-12-21T13:13:12.205Z,99085.19
2018-12-21T13:15:54.332Z,99085.98
2018-12-21T13:18:36.554Z,99078.09
2018-12-21T13:21:19.220Z,99078.72
2018-12-21T13:24:00.991Z,99070.95
2018-12-21T13:26:42.919Z,99062.47
2018-12-21T13:29:24.866Z,99059.66
2018-12-21T13:32:06.774Z,99050.95
2018-12-21T13:34:48.907Z,99044.23
2018-12-21T13:37:31.411Z,99031.95
2018-12-21T13:40:13.833Z,99026.23
2018-12-21T13:42:55.865Z,99029.23
2018-12-21T13:45:37.938Z,99022.83
2018-12-21T13:48:19.784Z,99013.79
2018-12-21T13:51:02.247Z,99006.88
2018-12-21T13:53:44.167Z,99003.73
2018-12-21T13:56:26.465Z,99001.08
2018-12-21T13:59:08.456Z,98993.60
2018-12-21T14:01:50.294Z,98983.86
2018-12-21T14:04:32.491Z,98974.77
2018-12-21T14:07:14.232Z,98985.13
2018-12-21T14:09:56.875Z,98974.76
2018-12-21T14:12:38.660Z,98969.35
2018-12-21T14:15:20.532Z,98956.32
2018-12-21T14:18:02.673Z,98966.25
2018-12-21T14:20:44.457Z,98958.36
2018-12-21T14:23:27.547Z,98959.16
2018-12-21T14:26:09.658Z,98947.22
2018-12-21T14:28:51.601Z,98944.39
2018-12-21T14:31:33.829Z,98952.40
2018-12-21T14:34:15.606Z,98939.13
2018-12-21T14:36:57.447Z,98940.23
2018-12-21T14:39:39.551Z,98943.06
2018-12-21T14:42:22.180Z,98932.80
2018-12-21T14:45:04.260Z,98925.29
2018-12-21T14:47:46.489Z,98917.41
2018-12-21T14:50:28.891Z,98902.37
2018-12-21T14:53:12.281Z,98902.41
2018-12-21T14:55:54.035Z,98903.66
2018-12-21T14:58:36.218Z,98897.38
2018-12-21T15:01:18.080Z,98880.78
2018-12-21T15:04:00.902Z,98870.17
2018-12-21T15:06:43.479Z,98863.31
2018-12-21T15:09:29.165Z,98864.66
2018-12-21T15:12:11.229Z,98857.10
2018-12-21T15:14:53.462Z,98842.19
2018-12-21T15:17:36.142Z,98852.99
2018-12-21T15:20:19.056Z,98835.03
2018-12-21T15:23:00.873Z,98830.81
2018-12-21T15:25:46.217Z,98832.39
2018-12-21T15:28:27.556Z,98834.28
2018-12-21T15:31:09.419Z,98817.73
2018-12-21T15:33:51.554Z,98820.56
2018-12-21T15:36:34.657Z,98822.80
2018-12-21T15:39:17.908Z,98792.31
2018-12-21T15:42:00.048Z,98800.69
2018-12-21T15:44:42.639Z,98794.45
2018-12-21T15:47:24.954Z,98784.41
2018-12-21T15:50:11.493Z,98780.14
2018-12-21T15:52:54.161Z,98775.05
2018-12-21T15:55:37.525Z,98782.11
2018-12-21T15:58:19.110Z,98765.77
2018-12-21T16:01:01.966Z,98773.73
2018-12-21T16:03:43.974Z,98760.24
2018-12-21T16:06:26.350Z,98772.53
2018-12-21T16:09:09.695Z,98758.20
2018-12-21T16:11:51.813Z,98756.44
2018-12-21T16:14:34.482Z,98757.88
2018-12-21T16:17:17.325Z,98744.94
2018-12-21T16:19:59.183Z,98737.02
2018-12-21T16:22:42.443Z,98719.13
2018-12-21T16:25:25.549Z,98720.54
2018-12-21T16:28:08.539Z,98720.13
2018-12-21T16:30:51.508Z,98731.55
2018-12-21T16:33:33.208Z,98709.36
2018-12-21T16:36:15.949Z,98706.98
2018-12-21T16:38:58.354Z,98712.56
2018-12-21T16:41:41.211Z,98703.20
2018-12-21T16:44:24.873Z,98701.52
2018-12-21T16:47:06.583Z,98699.64
2018-12-21T16:49:48.845Z,98699.00
2018-12-21T16:52:32.707Z,98687.00
2018-12-21T16:55:15.363Z,98704.53
2018-12-21T16:57:57.580Z,98709.16
2018-12-21T17:00:40.051Z,98692.45
2018-12-21T17:03:22.664Z,98679.73
2018-12-21T17:06:05.556Z,98697.00
2018-12-21T17:08:47.976Z,98699.45
2018-12-21T17:11:30.313Z,98681.91
2018-12-21T17:14:13.034Z,98693.84
2018-12-21T17:16:55.164Z,98685.02
2018-12-21T17:19:37.751Z,98706.00
2018-12-21T17:22:20.345Z,98681.44
2018-12-21T17:25:02.969Z,98687.00
2018-12-21T17:27:45.814Z,98670.28
2018-12-21T17:30:28.432Z,98662.67
2018-12-21T17:33:10.830Z,98668.58
2018-12-21T17:35:53.216Z,98671.44
2018-12-21T17:38:35.449Z,98652.03
2018-12-21T17:41:17.473Z,98656.17
2018-12-21T17:43:59.427Z,98669.92
2018-12-21T17:46:41.187Z,98652.77
2018-12-21T17:49:23.080Z,98662.18
2018-12-21T17:52:05.323Z,98660.95
2018-12-21T17:54:47.738Z,98683.09
2018-12-21T17:57:29.787Z,98665.94
2018-12-21T18:00:18.511Z,98668.88
2018-12-21T18:03:00.499Z,98667.30
2018-12-21T18:05:43.317Z,98659.39
2018-12-21T18:08:25.119Z,98678.45
2018-12-21T18:11:07.256Z,98672.47
2018-12-21T18:13:49.767Z,98688.77
2018-12-21T18:16:32.865Z,98681.31
2018-12-21T18:19:14.996Z,98676.63
2018-12-21T18:22:16.713Z,98678.21
2018-12-21T18:25:03.565Z,98680.52
2018-12-21T18:27:50.043Z,98654.25
2018-12-21T18:30:39.502Z,98686.70
2018-12-21T18:33:24.617Z,98690.99
2018-12-21T18:36:07.536Z,98665.33
2018-12-21T18:38:49.677Z,98691.13
2018-12-21T18:41:32.552Z,98680.77
2018-12-21T18:44:14.512Z,98686.28
2018-12-21T18:46:56.857Z,98679.67
2018-12-21T18:49:39.004Z,98685.33
2018-12-21T18:52:20.796Z,98694.39
2018-12-21T18:55:05.022Z,98699.19
2018-12-21T18:57:49.811Z,98703.46
2018-12-21T19:00:32.202Z,98709.45
2018-12-21T19:03:14.406Z,98702.36
2018-12-21T19:05:57.191Z,98688.80
2018-12-21T19:08:39.147Z,98691.59
2018-12-21T19:11:25.476Z,98694.14
2018-12-21T19:14:10.061Z,98694.98
2018-12-21T19:16:52.622Z,98697.39
2018-12-21T19:19:35.941Z,98691.90
2018-12-21T19:22:18.613Z,98691.77
2018-12-21T19:25:00.564Z,98691.23
2018-12-21T19:27:42.554Z,98678.78
2018-12-21T19:30:25.802Z,98689.02
2018-12-21T19:33:08.244Z,98703.42
2018-12-21T19:35:50.110Z,98700.42
2018-12-21T19:38:31.767Z,98697.39
2018-12-21T19:41:15.027Z,98704.80
2018-12-21T19:43:57.684Z,98692.00
2018-12-21T19:46:39.802Z,98696.55
2018-12-21T19:49:21.614Z,98697.56
2018-12-21T19:52:04.260Z,98697.22
2018-12-21T19:54:51.819Z,98689.92
2018-12-21T19:57:34.180Z,98693.27
2018-12-21T20:00:16.179Z,98694.49
2018-12-21T20:02:59.676Z,98694.85
2018-12-21T20:05:41.683Z,98698.59
2018-12-21T20:08:24.157Z,98691.52
2018-12-21T20:11:07.201Z,98686.72
2018-12-21T20:13:49.437Z,98701.08
2018-12-21T20:16:31.917Z,98705.86
2018-12-21T20:19:14.630Z,98724.31
2018-12-21T20:21:57.281Z,98719.54
2018-12-21T20:24:40.991Z,98720.99
2018-12-21T20:27:23.632Z,98711.34
2018-12-21T20:30:09.737Z,98717.93
2018-12-21T20:32:52.305Z,98712.94
2018-12-21T20:35:34.775Z,98702.06
2018-12-21T20:38:21.405Z,98696.38
2018-12-21T20:41:04.251Z,98689.66
2018-12-21T20:43:46.239Z,98712.52
2018-12-21T20:46:28.049Z,98704.38
2018-12-21T20:49:09.628Z,98709.29
2018-12-21T20:51:51.217Z,98731.98
2018-12-21T20:54:32.764Z,98702.73
2018-12-21T20:57:21.871Z,98726.48
2018-12-21T21:00:01.764Z,98739.91
2018-12-21T21:02:45.345Z,98736.86
2018-12-21T21:05:26.936Z,98730.85
2018-12-21T21:08:09.342Z,98747.86
2018-12-21T21:10:51.265Z,98742.23
2018-12-21T21:13:34.103Z,98768.72
2018-12-21T21:16:16.261Z,98765.85
2018-12-21T21:18:58.427Z,98771.06
2018-12-21T21:21:40.663Z,98784.06
2018-12-21T21:24:22.967Z,98766.67
2018-12-21T21:27:05.010Z,98776.72
2018-12-21T21:29:47.382Z,98770.88
2018-12-21T21:32:29.674Z,98812.08
2018-12-21T21:35:13.190Z,98783.40
2018-12-21T21:37:55.052Z,98813.47
2018-12-21T21:40:39.254Z,98793.83
2018-12-21T21:43:21.430Z,98793.12
2018-12-21T21:46:03.432Z,98795.81
2018-12-21T21:48:45.666Z,98804.50
2018-12-21T21:51:27.957Z,98816.31
2018-12-21T21:54:09.618Z,98831.67
2018-12-21T21:56:52.402Z,98837.31
2018-12-21T21:59:34.617Z,98851.58
2018-12-21T22:02:16.767Z,98846.42
2018-12-21T22:04:59.250Z,98843.56
2018-12-21T22:07:41.769Z,98841.17
2018-12-21T22:10:23.632Z,98827.22
2018-12-21T22:13:05.877Z,98828.59
2018-12-21T22:15:47.983Z,98814.53
2018-12-21T22:18:30.894Z,98824.98
2018-12-21T22:21:13.357Z,98818.28
2018-12-21T22:23:55.321Z,98812.22
2018-12-21T22:26:37.706Z,98823.86
2018-12-21T22:29:19.997Z,98829.48
2018-12-21T22:32:01.999Z,98823.85
2018-12-21T22:34:45.444Z,98828.73
2018-12-21T22:37:27.956Z,98826.70
2018-12-21T22:40:09.947Z,98841.36
2018-12-21T22:42:52.028Z,98839.86
2018-12-21T22:45:35.822Z,98836.99
2018-12-21T22:48:17.839Z,98848.83
2018-12-21T22:51:00.043Z,98838.77
2018-12-21T22:53:42.261Z,98853.81
2018-12-21T22:56:24.372Z,98859.48
2018-12-21T22:59:08.309Z,98873.86
2018-12-21T23:01:51.107Z,98865.83
2018-12-21T23:04:33.170Z,98869.66
2018-12-21T23:07:15.476Z,98877.40
2018-12-21T23:09:58.127Z,98875.20
2018-12-21T23:12:40.472Z,98882.59
2018-12-21T23:15:23.178Z,98882.59
2018-12-21T23:18:05.753Z,98873.61
2018-12-21T23:20:47.637Z,98880.22
2018-12-21T23:23:29.942Z,98892.48
2018-12-21T23:26:11.772Z,98896.19
2018-12-21T23:28:53.990Z,98896.02
2018-12-21T23:31:35.985Z,98900.55
2018-12-21T23:34:17.819Z,98904.09
2018-12-21T23:36:59.844Z,98908.38
2018-12-21T23:39:42.447Z,98902.64
2018-12-21T23:42:24.704Z,98900.09
2018-12-21T23:45:08.742Z,98901.34
2018-12-21T23:47:51.149Z,98902.83
2018-12-21T23:50:33.591Z,98903.36
2018-12-21T23:53:15.829Z,98911.03
2018-12-21T23:55:58.621Z,98911.45
2018-12-21T23:58:40.922Z,98911.17
